Latest Weather Observations for Lucinda

IDQ60801

Issued at 1:32 pm EST Saturday 25 March 2017 (issued every 30 minutes, with the page automatically refreshed every 10 minutes)

About weather observations | Map of weather stations | Latest weather observations for QLD | Other Formats
Station Details ID: 032141 Name: LUCINDA POINT Lat: -18.52 Lon: 146.39 Height: 10.0 m
Data from the previous 72 hours. | See also: Recent months at Lucinda
Date/Time
EST
Temp
°C
App
Temp
°C
Dew
Point
°C
Rel
Hum
%
Delta-T
°C
Wind Press
QNH
hPa
Press
MSL
hPa
Rain since
9am
mm
Dir  Spd
km/h
Gust
km/h
Spd
kts
Gust
kts
25/01:30pm 29.6 30.4 21.8 63 5.3 S 20 26 11 14 1007.7 1007.6 0.0
25/01:00pm 29.4 29.9 21.9 64 5.1 S 22 30 12 16 1008.0 1007.9 0.0
25/12:30pm 29.1 29.3 22.1 66 4.7 S 24 30 13 16 1008.3 1008.2 0.0
25/12:00pm 28.9 28.8 21.4 64 5.0 S 24 30 13 16 1008.8 1008.7 0.0
25/11:30am 28.9 28.9 22.4 68 4.4 S 26 30 14 16 1009.3 1009.2 0.0
25/11:00am 28.9 28.5 21.7 65 4.8 S 26 33 14 18 1009.7 1009.6 0.0
25/10:30am 28.9 28.1 21.7 65 4.8 S 28 32 15 17 1009.7 1009.6 0.0
25/10:00am 28.9 28.8 21.4 64 5.0 S 24 32 13 17 1009.8 1009.7 0.0
25/09:30am 27.6 28.8 22.5 74 3.4 SSW 20 24 11 13 1010.0 1009.9 0.0
25/09:00am 27.4 28.8 22.6 75 3.3 SSW 19 22 10 12 1009.9 1009.8 21.2
25/08:30am 26.9 28.3 22.9 79 2.7 SW 20 22 11 12 1009.6 1009.5 21.2
25/08:00am 26.3 28.0 23.4 84 2.0 SW 20 24 11 13 1009.4 1009.3 21.2
25/07:30am 25.7 27.3 23.2 86 1.7 WSW 20 26 11 14 1009.0 1008.9 21.2
25/07:00am 26.2 27.8 23.3 84 2.0 SW 20 24 11 13 1008.7 1008.6 21.2
25/06:30am 25.8 27.6 23.5 87 1.6 SW 20 22 11 12 1008.4 1008.3 21.2
25/06:00am 25.8 27.6 23.5 87 1.6 SW 20 22 11 12 1008.2 1008.1 21.2
25/05:30am 25.8 27.7 23.5 87 1.6 SW 19 24 10 13 1008.1 1008.0 21.2
25/05:00am 25.8 27.4 23.8 89 1.4 WSW 22 24 12 13 1007.9 1007.8 21.2
25/04:30am 26.3 28.4 23.8 86 1.7 WSW 19 20 10 11 1007.8 1007.7 21.2
25/04:00am 26.1 28.2 23.8 87 1.6 WSW 19 22 10 12 1007.8 1007.7 21.2
25/03:30am 26.1 28.3 24.3 90 1.2 WSW 20 24 11 13 1007.9 1007.8 21.2
25/03:00am 25.7 27.6 23.7 89 1.4 SW 20 22 11 12 1008.1 1008.0 21.2
25/02:30am 25.7 27.7 23.9 90 1.2 SW 20 26 11 14 1008.2 1008.1 21.2
25/02:00am 25.9 27.5 23.9 89 1.4 WSW 22 24 12 13 1008.6 1008.5 21.2
25/01:30am 25.8 27.1 23.3 86 1.7 WSW 22 26 12 14 1008.8 1008.7 21.2
25/01:00am 26.2 28.4 24.2 89 1.4 WSW 20 24 11 13 1009.1 1009.0 21.2
25/12:30am 26.5 28.7 24.2 87 1.6 WSW 20 22 11 12 1009.2 1009.1 21.2
25/12:00am 25.9 28.1 23.9 89 1.4 WSW 19 24 10 13 1009.4 1009.3 21.2
 
Date/Time
EST
Temp
°C
App
Temp
°C
Dew
Point
°C
Rel
Hum
%
Delta-T
°C
Wind Press
QNH
hPa
Press
MSL
hPa
Rain since
9am
mm
Dir  Spd
km/h
Gust
km/h
Spd
kts
Gust
kts
24/11:30pm 26.0 27.6 23.9 88 1.4 WSW 22 24 12 13 1009.7 1009.6 19.2
24/11:00pm 25.9 27.1 23.9 89 1.4 WSW 24 26 13 14 1009.8 1009.7 19.2
24/10:30pm 25.9 27.9 23.9 89 1.4 W 20 24 11 13 1010.1 1010.0 19.2
24/10:00pm 27.4 31.1 23.2 78 2.9 S 9 13 5 7 1009.7 1009.6 19.2
24/09:30pm 28.1 32.7 24.7 82 2.4 S 9 13 5 7 1009.4 1009.3 15.8
24/09:00pm 27.9 32.3 24.5 82 2.4 S 9 15 5 8 1009.5 1009.4 15.8
24/08:30pm 28.2 32.2 24.4 80 2.6 SE 11 19 6 10 1009.3 1009.2 15.8
24/08:00pm 28.1 32.8 24.3 80 2.6 SSE 7 11 4 6 1009.2 1009.1 15.8
24/07:30pm 28.0 31.3 23.8 78 2.9 SE 13 20 7 11 1009.0 1008.9 15.8
24/07:00pm 28.0 31.1 23.6 77 3.0 ESE 13 20 7 11 1008.7 1008.6 15.8
24/06:30pm 28.2 30.4 24.0 78 2.9 SE 19 30 10 16 1008.4 1008.3 15.8
24/06:00pm 27.8 30.8 24.6 83 2.2 SE 17 28 9 15 1008.1 1008.0 15.8
24/05:30pm 27.4 32.5 25.0 87 1.7 SSE 7 13 4 7 1007.9 1007.8 15.8
24/05:00pm 26.2 30.4 24.8 92 1.0 ESE 11 15 6 8 1007.7 1007.6 15.8
24/04:30pm 26.2 28.1 23.7 86 1.7 SE 20 43 11 23 1007.2 1007.1 11.4
24/04:00pm 27.8 30.4 24.0 80 2.6 S 17 20 9 11 1007.1 1007.0 10.6
24/03:30pm 26.6 30.7 24.6 89 1.4 WSW 11 15 6 8 1007.2 1007.1 10.6
24/03:00pm 26.5 30.2 24.5 89 1.4 WSW 13 19 7 10 1007.4 1007.3 10.6
24/02:30pm 27.4 31.0 23.8 81 2.5 SSE 11 19 6 10 1007.6 1007.5 10.6
24/02:00pm 26.6 29.1 23.1 81 2.4 SSE 15 22 8 12 1008.2 1008.1 10.6
24/01:30pm 27.1 30.5 24.0 83 2.1 S 13 19 7 10 1008.5 1008.4 10.6
24/01:00pm 26.7 29.3 24.0 85 1.9 SSW 17 20 9 11 1008.8 1008.7 10.6
24/12:30pm 26.1 28.2 23.8 87 1.6 S 19 26 10 14 1009.0 1008.9 10.6
24/12:00pm 26.2 28.5 23.5 85 1.8 SSE 17 28 9 15 1009.4 1009.3 10.6
24/11:30am 26.2 28.7 24.4 90 1.2 SE 19 33 10 18 1009.9 1009.8 10.4
24/11:00am 26.2 28.6 25.2 94 0.7 SSW 22 30 12 16 1010.5 1010.4 7.0
24/10:30am 25.4 26.4 24.2 93 0.8 SW 26 30 14 16 1010.4 1010.3 3.4
24/10:00am 25.0 26.7 24.0 94 0.7 WSW 22 28 12 15 1010.4 1010.3 3.0
24/09:30am 25.4 26.3 24.0 92 1.0 SW 26 30 14 16 1010.4 1010.3 0.0
24/09:00am 25.2 26.3 23.6 91 1.1 SW 24 26 13 14 1010.4 1010.3 5.2
24/08:30am 25.2 26.5 24.0 93 0.8 WSW 24 26 13 14 1010.1 1010.0 5.0
24/08:00am 24.7 26.1 23.5 93 0.8 WSW 22 26 12 14 1010.0 1009.9 5.0
24/07:30am 24.4 26.3 23.4 94 0.7 W 19 24 10 13 1009.8 1009.7 5.0
24/07:00am 24.2 25.0 23.2 94 0.7 WSW 24 30 13 16 1009.4 1009.3 5.0
24/06:30am 24.3 25.2 23.3 94 0.7 W 24 28 13 15 1009.2 1009.1 4.4
24/06:00am 24.0 24.6 22.8 93 0.8 W 24 30 13 16 1008.8 1008.7 3.2
24/05:30am 23.9 24.6 22.9 94 0.7 WSW 24 32 13 17 1008.6 1008.5 2.8
24/05:00am 23.8 23.5 22.6 93 0.8 W 28 32 15 17 1008.2 1008.1 2.6
24/04:30am 24.5 25.0 23.3 93 0.8 WSW 26 30 14 16 1008.1 1008.0 2.2
24/04:00am 24.0 24.7 23.0 94 0.7 WSW 24 32 13 17 1007.9 1007.8 2.2
24/03:30am 24.2 24.9 23.0 93 0.8 WSW 24 30 13 16 1008.0 1007.9 2.2
24/03:00am 24.3 24.6 22.9 92 0.9 WSW 26 32 14 17 1008.3 1008.2 2.2
24/02:30am 24.7 25.6 23.3 92 1.0 WSW 24 28 13 15 1008.5 1008.4 1.8
24/02:00am 25.1 26.7 23.2 89 1.3 SW 20 26 11 14 1008.8 1008.7 1.2
24/01:30am 26.7 27.2 21.9 75 3.2 S 22 30 12 16 1009.0 1008.9 0.2
24/01:00am 26.9 31.3 24.5 87 1.7 S 9 13 5 7 1009.1 1009.0 0.2
24/12:30am 26.3 28.9 24.0 87 1.6 SE 17 28 9 15 1009.0 1008.9 0.2
24/12:00am 25.4 25.0 23.1 87 1.6 S 30 44 16 24 1010.0 1009.9 0.2
 
Date/Time
EST
Temp
°C
App
Temp
°C
Dew
Point
°C
Rel
Hum
%
Delta-T
°C
Wind Press
QNH
hPa
Press
MSL
hPa
Rain since
9am
mm
Dir  Spd
km/h
Gust
km/h
Spd
kts
Gust
kts
23/11:30pm 26.0 22.6 23.7 87 1.6 S 48 67 26 36 1009.7 1009.6 0.2
23/11:25pm 25.8 24.3 22.7 83 2.1 SSE 35 63 19 34 1009.8 1009.7 0.2
23/11:21pm 27.1 28.2 23.6 81 2.4 SE 24 48 13 26 1009.8 1009.7 0.2
23/11:00pm 28.4 30.1 24.6 80 2.7 ESE 24 35 13 19 1009.6 1009.5 0.2
23/10:30pm 28.3 30.8 24.5 80 2.6 ESE 19 30 10 16 1009.9 1009.8 0.2
23/10:00pm 28.8 32.2 24.6 78 2.9 SE 15 28 8 15 1009.9 1009.8 0.2
23/09:30pm 28.7 30.9 24.3 77 3.1 ESE 20 26 11 14 1009.8 1009.7 0.2
23/09:00pm 28.8 31.5 24.1 76 3.3 ESE 17 24 9 13 1009.7 1009.6 0.2
23/08:30pm 28.8 31.9 24.1 76 3.3 ESE 15 20 8 11 1009.7 1009.6 0.2
23/08:00pm 28.8 32.2 24.6 78 2.9 ESE 15 22 8 12 1009.5 1009.4 0.2
23/07:30pm 28.6 31.7 24.8 80 2.7 ESE 17 28 9 15 1009.1 1009.0 0.2
23/07:00pm 28.5 31.4 24.5 79 2.8 ESE 17 24 9 13 1008.8 1008.7 0.2
23/06:30pm 28.6 32.0 24.6 79 2.8 ESE 15 22 8 12 1008.4 1008.3 0.2
23/06:00pm 29.0 32.7 24.6 77 3.1 ESE 13 20 7 11 1008.1 1008.0 0.2
23/05:30pm 28.8 32.0 24.4 77 3.1 SE 15 24 8 13 1007.8 1007.7 0.2
23/05:00pm 29.1 32.3 24.4 76 3.3 ESE 15 22 8 12 1007.2 1007.1 0.2
23/04:30pm 29.0 31.9 23.9 74 3.5 SE 15 24 8 13 1007.0 1006.9 0.2
23/04:00pm 29.1 32.1 23.3 71 4.0 SE 13 24 7 13 1007.1 1007.0 0.2
23/03:30pm 30.4 33.7 23.8 68 4.6 ESE 13 20 7 11 1007.1 1007.0 0.2
23/03:00pm 29.7 32.8 23.6 69 4.2 SE 13 20 7 11 1007.3 1007.2 0.2
23/02:30pm 30.1 33.5 24.0 70 4.2 SE 13 20 7 11 1007.3 1007.2 0.2
23/02:00pm 31.0 34.8 24.1 66 4.8 ESE 11 15 6 8 1007.5 1007.4 0.2
23/01:30pm 30.2 35.0 24.4 71 4.0 E 7 13 4 7 1007.8 1007.7 0.2
23/01:00pm 28.8 32.4 24.4 77 3.1 S 13 17 7 9 1008.4 1008.3 0.2
23/12:30pm 28.3 31.1 24.3 79 2.8 S 17 20 9 11 1008.9 1008.8 0.2
23/12:00pm 28.4 30.9 24.4 79 2.8 S 19 22 10 12 1009.4 1009.3 0.2
23/11:30am 28.1 30.4 24.1 79 2.8 S 19 20 10 11 1009.9 1009.8 0.2
23/11:00am 28.0 30.7 23.4 76 3.2 S 15 20 8 11 1010.4 1010.3 0.2
23/10:30am 28.1 31.0 23.2 74 3.3 SSW 13 17 7 9 1010.5 1010.4 0.2
23/10:00am 27.4 30.2 23.0 77 3.0 SSW 13 17 7 9 1010.6 1010.5 0.2
23/09:30am 27.1 30.1 23.3 80 2.6 SSW 13 17 7 9 1010.4 1010.3 0.0
23/09:00am 26.6 29.2 23.3 82 2.3 SW 15 17 8 9 1010.3 1010.2 4.8
23/08:30am 26.1 29.1 23.4 85 1.8 WSW 13 15 7 8 1010.1 1010.0 4.8
23/08:00am 25.5 27.8 23.4 88 1.4 SW 17 20 9 11 1009.8 1009.7 4.8
23/07:30am 25.2 26.8 22.9 87 1.6 WSW 19 20 10 11 1009.7 1009.6 4.8
23/07:00am 24.7 26.0 22.6 88 1.4 WSW 20 24 11 13 1009.3 1009.2 4.8
23/06:30am 25.0 26.5 23.1 89 1.3 SW 20 24 11 13 1008.8 1008.7 4.8
23/06:00am 25.5 27.7 23.2 87 1.6 WSW 17 22 9 12 1008.8 1008.7 4.8
23/05:30am 25.8 28.5 23.5 87 1.6 SW 15 19 8 10 1008.3 1008.2 4.8
23/05:00am 25.1 27.5 23.7 92 1.0 SW 17 20 9 11 1008.1 1008.0 4.6
23/04:30am 24.6 25.9 23.4 93 0.8 WSW 22 24 12 13 1008.1 1008.0 4.6
23/04:00am 24.5 25.9 22.9 91 1.1 WSW 20 24 11 13 1008.0 1007.9 4.4
23/03:30am 25.2 29.5 23.6 91 1.1 WNW 7 15 4 8 1008.1 1008.0 4.2
23/03:00am 25.5 30.1 24.1 92 1.0 N 7 11 4 6 1008.1 1008.0 3.4
23/02:30am 25.4 29.3 24.2 93 0.8 SE 11 26 6 14 1008.4 1008.3 3.4
23/02:00am 24.7 26.0 23.3 92 1.0 WSW 22 33 12 18 1009.2 1009.1 2.8
23/01:36am 25.6 26.5 24.0 91 1.1 SW 26 43 14 23 1009.6 1009.5 2.2
23/01:30am 26.2 29.3 24.2 89 1.4 WSW 15 22 8 12 1009.3 1009.2 2.0
23/01:00am 26.9 31.1 23.4 81 2.4 N 7 17 4 9 1009.5 1009.4 1.2
23/12:30am 26.9 27.1 23.4 81 2.4 ENE 28 37 15 20 1009.0 1008.9 1.2
23/12:26am 27.1 27.2 23.3 80 2.6 ENE 28 37 15 20 1008.9 1008.8 1.2
23/12:00am 28.3 33.1 24.5 80 2.6 NNW 7 11 4 6 1009.3 1009.2 1.2
 
Date/Time
EST
Temp
°C
App
Temp
°C
Dew
Point
°C
Rel
Hum
%
Delta-T
°C
Wind Press
QNH
hPa
Press
MSL
hPa
Rain since
9am
mm
Dir  Spd
km/h
Gust
km/h
Spd
kts
Gust
kts
22/11:30pm 28.0 28.3 23.6 77 3.0 N 28 33 15 18 1009.5 1009.4 1.2
22/11:00pm 27.7 30.2 25.3 87 1.7 N 22 28 12 15 1009.6 1009.5 1.0
22/10:30pm 26.8 26.2 23.3 81 2.4 ESE 32 41 17 22 1009.6 1009.5 0.0
22/10:25pm 27.6 28.0 23.8 80 2.6 ESE 28 41 15 22 1009.6 1009.5 0.0
22/10:00pm 29.1 31.6 24.4 76 3.3 NE 19 22 10 12 1009.8 1009.7 0.0
22/09:30pm 29.1 31.5 24.2 75 3.4 NE 19 20 10 11 1009.7 1009.6 0.0
22/09:00pm 29.2 31.5 24.1 74 3.5 NE 19 20 10 11 1009.6 1009.5 0.0
22/08:30pm 29.1 31.6 23.8 73 3.7 NE 17 20 9 11 1008.9 1008.8 0.0
22/08:00pm 29.0 31.4 23.7 73 3.7 NNE 17 20 9 11 1008.2 1008.1 0.0
22/07:30pm 29.0 31.7 24.1 75 3.4 NNE 17 19 9 10 1007.8 1007.7 0.0
22/07:00pm 28.9 31.8 24.5 77 3.1 NNE 17 20 9 11 1007.6 1007.5 0.0
22/06:30pm 28.9 31.1 24.2 76 3.3 NE 20 24 11 13 1007.0 1006.9 0.0
22/06:00pm 29.0 30.9 23.7 73 3.7 NE 20 22 11 12 1006.9 1006.8 0.0
22/05:30pm 29.0 30.9 23.7 73 3.7 NE 20 24 11 13 1006.4 1006.3 0.0
22/05:00pm 29.3 32.1 23.7 72 3.9 ENE 15 20 8 11 1006.4 1006.3 0.0
22/04:30pm 29.2 31.3 24.1 74 3.5 NE 20 26 11 14 1006.3 1006.2 0.0
22/04:00pm 29.1 31.0 23.5 72 3.9 ENE 19 24 10 13 1006.3 1006.2 0.0
22/03:30pm 29.1 31.3 24.0 74 3.5 NE 19 24 10 13 1006.1 1006.0 0.0
22/03:00pm 28.9 31.5 23.3 72 3.8 NE 15 17 8 9 1006.4 1006.3 0.0
22/02:30pm 28.9 31.5 23.3 72 3.8 NE 15 17 8 9 1006.9 1006.8 0.0
22/02:00pm 29.2 32.0 23.6 72 3.9 ENE 15 20 8 11 1007.3 1007.2 0.0

Other Formats:

Comma delimited format used in spreadsheet applications
http://www.bom.gov.au/fwo/IDQ60801/IDQ60801.94295.axf

JavaScript Object Notation format (JSON) in row-major order
http://www.bom.gov.au/fwo/IDQ60801/IDQ60801.94295.json